createdAt,value
2018-12-06T00:00:42.185Z,98376.09
2018-12-06T00:03:11.161Z,98372.86
2018-12-06T00:05:40.019Z,98370.70
2018-12-06T00:08:16.538Z,98353.26
2018-12-06T00:10:45.541Z,98343.00
2018-12-06T00:13:14.493Z,98339.59
2018-12-06T00:15:43.399Z,98340.47
2018-12-06T00:18:12.225Z,98332.69
2018-12-06T00:20:41.163Z,98366.78
2018-12-06T00:23:10.057Z,98387.24
2018-12-06T00:25:39.131Z,98393.91
2018-12-06T00:28:08.027Z,98384.27
2018-12-06T00:30:41.330Z,98374.08
2018-12-06T00:33:10.386Z,98358.48
2018-12-06T00:35:39.782Z,98351.78
2018-12-06T00:38:08.744Z,98350.70
2018-12-06T00:41:07.036Z,98373.02
2018-12-06T00:43:35.956Z,98373.27
2018-12-06T00:46:04.780Z,98364.13
2018-12-06T00:48:33.658Z,98361.78
2018-12-06T00:51:02.532Z,98368.53
2018-12-06T00:53:31.363Z,98377.13
2018-12-06T00:56:00.195Z,98381.38
2018-12-06T00:58:29.051Z,98385.42
2018-12-06T01:00:57.996Z,98385.63
2018-12-06T01:03:26.891Z,98385.11
2018-12-06T01:05:55.816Z,98377.59
2018-12-06T01:08:24.673Z,98365.50
2018-12-06T01:10:53.558Z,98362.83
2018-12-06T01:13:22.468Z,98367.90
2018-12-06T01:15:51.350Z,98380.85
2018-12-06T01:18:20.238Z,98367.36
2018-12-06T01:20:49.142Z,98370.58
2018-12-06T01:23:18.026Z,98365.73
2018-12-06T01:25:46.926Z,98362.04
2018-12-06T01:28:15.826Z,98355.08
2018-12-06T01:30:44.688Z,98350.31
2018-12-06T01:33:13.628Z,98349.73
2018-12-06T01:35:42.470Z,98342.98
2018-12-06T01:38:11.357Z,98347.75
2018-12-06T01:40:40.246Z,98360.45
2018-12-06T01:43:09.160Z,98365.58
2018-12-06T01:45:37.983Z,98370.66
2018-12-06T01:48:06.900Z,98368.70
2018-12-06T01:50:35.819Z,98381.88
2018-12-06T01:53:04.667Z,98392.03
2018-12-06T01:55:33.491Z,98378.88
2018-12-06T01:58:02.351Z,98379.19
2018-12-06T02:00:31.272Z,98385.66
2018-12-06T02:03:00.159Z,98388.36
2018-12-06T02:05:29.060Z,98382.39
2018-12-06T02:07:57.880Z,98384.02
2018-12-06T02:10:26.712Z,98380.52
2018-12-06T02:12:55.576Z,98371.35
2018-12-06T02:15:24.509Z,98373.50
2018-12-06T02:17:53.335Z,98381.34
2018-12-06T02:20:22.276Z,98375.09
2018-12-06T02:22:51.178Z,98361.13
2018-12-06T02:25:20.071Z,98369.48
2018-12-06T02:27:49.483Z,98375.92
2018-12-06T02:30:18.365Z,98385.55
2018-12-06T02:32:47.515Z,98385.56
2018-12-06T02:35:16.717Z,98382.58
2018-12-06T02:37:45.731Z,98393.59
2018-12-06T02:40:14.566Z,98402.45
2018-12-06T02:42:43.543Z,98387.70
2018-12-06T02:45:12.933Z,98394.13
2018-12-06T02:47:41.948Z,98390.64
2018-12-06T02:50:10.919Z,98379.87
2018-12-06T02:52:39.904Z,98377.95
2018-12-06T02:55:08.794Z,98352.48
2018-12-06T02:57:37.702Z,98354.63
2018-12-06T03:00:06.877Z,98355.23
2018-12-06T03:02:37.752Z,98354.41
2018-12-06T03:05:06.862Z,98347.03
2018-12-06T03:07:35.707Z,98335.45
2018-12-06T03:10:05.013Z,98329.02
2018-12-06T03:12:33.844Z,98333.94
2018-12-06T03:15:02.761Z,98341.77
2018-12-06T03:17:33.740Z,98348.19
2018-12-06T03:20:02.614Z,98343.11
2018-12-06T03:22:31.450Z,98354.94
2018-12-06T03:25:00.424Z,98363.51
2018-12-06T03:27:29.520Z,98371.58
2018-12-06T03:29:58.400Z,98348.88
2018-12-06T03:32:27.233Z,98355.13
2018-12-06T03:34:56.297Z,98364.61
2018-12-06T03:37:25.135Z,98356.83
2018-12-06T03:39:54.144Z,98350.89
2018-12-06T03:42:23.037Z,98352.76
2018-12-06T03:44:51.943Z,98365.42
2018-12-06T03:47:20.846Z,98357.30
2018-12-06T03:49:49.715Z,98345.72
2018-12-06T03:52:19.693Z,98336.22
2018-12-06T03:54:48.647Z,98329.23
2018-12-06T03:57:17.511Z,98327.33
2018-12-06T03:59:46.379Z,98322.53
2018-12-06T04:02:15.220Z,98323.14
2018-12-06T04:04:44.053Z,98330.70
2018-12-06T04:07:12.963Z,98330.47
2018-12-06T04:09:41.867Z,98326.98
2018-12-06T04:12:10.760Z,98327.02
2018-12-06T04:14:39.579Z,98317.27
2018-12-06T04:17:08.411Z,98319.73
2018-12-06T04:19:37.313Z,98314.36
2018-12-06T04:22:06.199Z,98324.81
2018-12-06T04:24:35.364Z,98318.41
2018-12-06T04:27:04.303Z,98333.44
2018-12-06T04:29:33.136Z,98331.29
2018-12-06T04:32:02.104Z,98325.05
2018-12-06T04:34:30.933Z,98320.49
2018-12-06T04:36:59.755Z,98323.77
2018-12-06T04:39:28.653Z,98329.42
2018-12-06T04:41:57.536Z,98327.82
2018-12-06T04:44:26.367Z,98329.41
2018-12-06T04:46:55.219Z,98335.06
2018-12-06T04:49:24.048Z,98341.82
2018-12-06T04:51:52.955Z,98340.75
2018-12-06T04:54:21.790Z,98348.55
2018-12-06T04:56:50.659Z,98337.81
2018-12-06T04:59:19.460Z,98341.06
2018-12-06T05:01:48.291Z,98350.70
2018-12-06T05:04:18.378Z,98352.30
2018-12-06T05:06:48.398Z,98351.75
2018-12-06T05:09:17.294Z,98354.45
2018-12-06T05:11:46.166Z,98356.63
2018-12-06T05:14:15.002Z,98349.63
2018-12-06T05:16:43.958Z,98344.25
2018-12-06T05:19:12.982Z,98355.81
2018-12-06T05:21:41.844Z,98356.37
2018-12-06T05:24:10.726Z,98363.09
2018-12-06T05:26:39.564Z,98359.61
2018-12-06T05:29:08.408Z,98364.47
2018-12-06T05:31:37.295Z,98358.76
2018-12-06T05:34:06.230Z,98352.11
2018-12-06T05:36:35.287Z,98355.66
2018-12-06T05:39:07.581Z,98343.00
2018-12-06T05:41:36.471Z,98338.70
2018-12-06T05:44:05.378Z,98348.94
2018-12-06T05:46:34.223Z,98336.59
2018-12-06T05:49:03.071Z,98332.62
2018-12-06T05:51:31.902Z,98334.23
2018-12-06T05:54:00.842Z,98328.59
2018-12-06T05:56:29.716Z,98335.78
2018-12-06T05:58:58.548Z,98339.22
2018-12-06T06:01:27.468Z,98334.64
2018-12-06T06:03:56.305Z,98337.91
2018-12-06T06:06:25.353Z,98333.88
2018-12-06T06:08:54.228Z,98338.17
2018-12-06T06:11:23.128Z,98337.94
2018-12-06T06:13:52.016Z,98343.09
2018-12-06T06:16:20.904Z,98339.31
2018-12-06T06:18:49.791Z,98339.55
2018-12-06T06:21:18.610Z,98342.13
2018-12-06T06:23:47.581Z,98351.53
2018-12-06T06:26:16.422Z,98353.44
2018-12-06T06:28:45.308Z,98360.68
2018-12-06T06:31:14.344Z,98374.64
2018-12-06T06:33:43.244Z,98375.13
2018-12-06T06:36:12.126Z,98373.27
2018-12-06T06:38:41.106Z,98375.41
2018-12-06T06:41:10.014Z,98363.34
2018-12-06T06:43:38.991Z,98368.46
2018-12-06T06:46:07.790Z,98371.13
2018-12-06T06:48:36.692Z,98373.27
2018-12-06T06:51:05.564Z,98374.34
2018-12-06T06:53:34.454Z,98370.01
2018-12-06T06:56:03.296Z,98368.42
2018-12-06T06:58:32.136Z,98369.20
2018-12-06T07:01:00.962Z,98371.38
2018-12-06T07:03:29.928Z,98374.83
2018-12-06T07:05:58.743Z,98384.76
2018-12-06T07:08:27.574Z,98376.99
2018-12-06T07:10:56.413Z,98377.22
2018-12-06T07:13:25.246Z,98386.83
2018-12-06T07:15:54.096Z,98380.09
2018-12-06T07:18:22.968Z,98373.09
2018-12-06T07:20:52.013Z,98371.70
2018-12-06T07:23:20.901Z,98376.03
2018-12-06T07:25:49.746Z,98380.05
2018-12-06T07:28:18.585Z,98382.98
2018-12-06T07:30:47.475Z,98385.63
2018-12-06T07:33:16.259Z,98383.42
2018-12-06T07:35:45.095Z,98397.56
2018-12-06T07:38:13.923Z,98390.84
2018-12-06T07:40:42.869Z,98392.98
2018-12-06T07:43:11.692Z,98400.73
2018-12-06T07:45:40.519Z,98392.89
2018-12-06T07:48:09.449Z,98395.84
2018-12-06T07:50:38.287Z,98399.50
2018-12-06T07:53:07.126Z,98403.84
2018-12-06T07:55:36.010Z,98406.95
2018-12-06T07:58:04.864Z,98419.59
2018-12-06T08:00:33.738Z,98404.53
2018-12-06T08:03:02.585Z,98404.21
2018-12-06T08:05:31.459Z,98402.78
2018-12-06T08:08:00.342Z,98401.59
2018-12-06T08:10:30.242Z,98399.42
2018-12-06T08:12:59.082Z,98402.30
2018-12-06T08:15:27.911Z,98419.09
2018-12-06T08:17:56.815Z,98413.95
2018-12-06T08:20:25.824Z,98410.47
2018-12-06T08:22:54.704Z,98414.49
2018-12-06T08:25:23.540Z,98413.97
2018-12-06T08:27:52.471Z,98411.17
2018-12-06T08:30:21.379Z,98414.08
2018-12-06T08:32:50.248Z,98418.66
2018-12-06T08:35:19.064Z,98423.13
2018-12-06T08:37:47.907Z,98423.87
2018-12-06T08:40:16.753Z,98410.03
2018-12-06T08:42:46.086Z,98406.73
2018-12-06T08:45:15.027Z,98413.21
2018-12-06T08:47:43.939Z,98419.47
2018-12-06T08:50:12.942Z,98417.00
2018-12-06T08:52:41.803Z,98415.17
2018-12-06T08:55:10.683Z,98416.16
2018-12-06T08:57:39.548Z,98420.46
2018-12-06T09:00:11.027Z,98420.63
2018-12-06T09:02:40.575Z,98421.17
2018-12-06T09:05:10.614Z,98419.68
2018-12-06T09:07:39.645Z,98420.63
2018-12-06T09:10:09.046Z,98416.36
2018-12-06T09:12:37.886Z,98408.45
2018-12-06T09:15:08.166Z,98400.47
2018-12-06T09:17:36.985Z,98402.84
2018-12-06T09:20:06.170Z,98411.23
2018-12-06T09:22:35.148Z,98414.23
2018-12-06T09:25:04.367Z,98422.52
2018-12-06T09:27:33.329Z,98428.69
2018-12-06T09:30:02.205Z,98425.31
2018-12-06T09:32:31.215Z,98433.83
2018-12-06T09:35:00.203Z,98439.33
2018-12-06T09:37:29.144Z,98443.99
2018-12-06T09:40:00.039Z,98452.12
2018-12-06T09:42:29.035Z,98455.07
2018-12-06T09:44:57.933Z,98453.02
2018-12-06T09:47:26.767Z,98459.15
2018-12-06T09:49:55.608Z,98452.92
2018-12-06T09:52:24.699Z,98444.97
2018-12-06T09:54:53.599Z,98439.00
2018-12-06T09:57:22.535Z,98441.66
2018-12-06T09:59:51.495Z,98438.56
2018-12-06T10:02:20.973Z,98441.37
2018-12-06T10:04:49.807Z,98447.52
2018-12-06T10:07:19.024Z,98449.25
2018-12-06T10:09:47.943Z,98446.57
2018-12-06T10:12:16.884Z,98438.20
2018-12-06T10:14:45.757Z,98445.02
2018-12-06T10:17:14.633Z,98442.45
2018-12-06T10:19:43.472Z,98435.91
2018-12-06T10:22:12.509Z,98427.22
2018-12-06T10:24:41.495Z,98427.42
2018-12-06T10:27:11.096Z,98426.43
2018-12-06T10:29:40.190Z,98428.08
2018-12-06T10:32:09.172Z,98435.66
2018-12-06T10:34:38.219Z,98441.81
2018-12-06T10:37:08.144Z,98437.41
2018-12-06T10:39:37.016Z,98443.88
2018-12-06T10:42:05.825Z,98435.19
2018-12-06T10:44:34.700Z,98425.13
2018-12-06T10:47:03.600Z,98431.23
2018-12-06T10:49:32.487Z,98427.70
2018-12-06T10:52:01.490Z,98423.45
2018-12-06T10:54:30.412Z,98413.88
2018-12-06T10:56:59.259Z,98416.56
2018-12-06T10:59:28.095Z,98417.94
2018-12-06T11:02:02.508Z,98423.28
2018-12-06T11:04:34.632Z,98419.66
2018-12-06T11:07:05.674Z,98420.96
2018-12-06T11:09:34.855Z,98421.92
2018-12-06T11:12:03.755Z,98417.77
2018-12-06T11:14:32.755Z,98421.73
2018-12-06T11:17:01.630Z,98411.98
2018-12-06T11:19:30.527Z,98426.73
2018-12-06T11:21:59.359Z,98429.55
2018-12-06T11:24:28.210Z,98427.04
2018-12-06T11:26:57.086Z,98428.17
2018-12-06T11:29:25.899Z,98425.48
2018-12-06T11:31:54.810Z,98428.55
2018-12-06T11:34:23.667Z,98428.09
2018-12-06T11:36:52.579Z,98438.77
2018-12-06T11:39:21.403Z,98440.66
2018-12-06T11:41:50.260Z,98445.28
2018-12-06T11:44:19.100Z,98452.38
2018-12-06T11:46:48.058Z,98469.01
2018-12-06T11:49:16.963Z,98466.02
2018-12-06T11:51:45.891Z,98461.41
2018-12-06T11:54:14.737Z,98456.49
2018-12-06T11:56:43.602Z,98442.08
2018-12-06T11:59:12.458Z,98426.73
2018-12-06T12:01:41.360Z,98416.92
2018-12-06T12:04:10.239Z,98429.55
2018-12-06T12:06:39.118Z,98425.16
2018-12-06T12:09:08.881Z,98410.20
2018-12-06T12:11:37.788Z,98401.91
2018-12-06T12:14:08.592Z,98405.16
2018-12-06T12:16:37.662Z,98408.52
2018-12-06T12:19:06.500Z,98403.66
2018-12-06T12:21:35.469Z,98406.20
2018-12-06T12:24:04.335Z,98404.81
2018-12-06T12:26:33.196Z,98405.91
2018-12-06T12:29:02.051Z,98409.53
2018-12-06T12:31:31.023Z,98400.08
2018-12-06T12:33:59.879Z,98390.83
2018-12-06T12:36:28.747Z,98392.63
2018-12-06T12:38:57.637Z,98405.78
2018-12-06T12:41:26.559Z,98409.42
2018-12-06T12:43:55.451Z,98409.47
2018-12-06T12:46:26.369Z,98394.88
2018-12-06T12:48:55.220Z,98391.93
2018-12-06T12:51:24.072Z,98381.70
2018-12-06T12:53:53.007Z,98368.31
2018-12-06T12:56:21.868Z,98369.91
2018-12-06T12:58:50.837Z,98392.73
2018-12-06T13:01:20.024Z,98403.35
2018-12-06T13:03:49.036Z,98405.72
2018-12-06T13:06:18.254Z,98398.94
2018-12-06T13:08:47.154Z,98397.75
2018-12-06T13:11:16.024Z,98390.58
2018-12-06T13:13:44.868Z,98393.98
2018-12-06T13:16:13.900Z,98403.03
2018-12-06T13:18:42.822Z,98406.38
2018-12-06T13:21:12.053Z,98409.22
2018-12-06T13:23:40.887Z,98413.82
2018-12-06T13:26:10.785Z,98422.87
2018-12-06T13:28:39.665Z,98436.58
2018-12-06T13:31:08.692Z,98432.95
2018-12-06T13:33:37.757Z,98434.64
2018-12-06T13:36:08.309Z,98437.59
2018-12-06T13:38:37.406Z,98446.50
2018-12-06T13:41:06.620Z,98453.04
2018-12-06T13:43:35.573Z,98469.95
2018-12-06T13:46:04.747Z,98477.51
2018-12-06T13:48:34.063Z,98470.33
2018-12-06T13:51:03.204Z,98474.89
2018-12-06T13:53:32.242Z,98483.37
2018-12-06T13:56:01.790Z,98478.44
2018-12-06T13:58:30.761Z,98470.24
2018-12-06T14:00:59.943Z,98466.74
2018-12-06T14:03:29.385Z,98479.48
2018-12-06T14:05:58.524Z,98468.52
2018-12-06T14:08:27.782Z,98461.44
2018-12-06T14:10:56.886Z,98456.16
2018-12-06T14:13:26.229Z,98461.01
2018-12-06T14:15:55.296Z,98459.50
2018-12-06T14:18:30.635Z,98454.17
2018-12-06T14:20:59.648Z,98454.17
2018-12-06T14:23:28.835Z,98465.48
2018-12-06T14:25:57.715Z,98463.63
2018-12-06T14:28:27.030Z,98465.59
2018-12-06T14:30:56.157Z,98469.39
2018-12-06T14:33:25.436Z,98468.88
2018-12-06T14:35:54.480Z,98471.25
2018-12-06T14:38:23.965Z,98472.81
2018-12-06T14:40:53.117Z,98475.22
2018-12-06T14:43:22.331Z,98486.52
2018-12-06T14:45:51.683Z,98486.05
2018-12-06T14:48:21.253Z,98492.30
2018-12-06T14:50:51.377Z,98493.94
2018-12-06T14:53:20.509Z,98492.52
2018-12-06T14:55:49.763Z,98490.29
2018-12-06T14:58:18.733Z,98494.70
2018-12-06T15:00:48.543Z,98500.39
2018-12-06T15:03:17.638Z,98499.55
2018-12-06T15:05:47.411Z,98507.57
2018-12-06T15:08:16.543Z,98502.25
2018-12-06T15:10:45.367Z,98494.52
2018-12-06T15:13:14.274Z,98499.50
2018-12-06T15:15:43.209Z,98503.41
2018-12-06T15:18:12.509Z,98491.45
2018-12-06T15:20:42.561Z,98494.27
2018-12-06T15:23:12.582Z,98487.66
2018-12-06T15:25:42.059Z,98494.78
2018-12-06T15:28:11.110Z,98493.53
2018-12-06T15:30:40.122Z,98497.09
2018-12-06T15:33:08.964Z,98498.09
2018-12-06T15:35:37.887Z,98501.63
2018-12-06T15:38:06.745Z,98506.31
2018-12-06T15:40:35.631Z,98508.17
2018-12-06T15:43:04.528Z,98508.73
2018-12-06T15:45:33.411Z,98512.53
2018-12-06T15:48:02.301Z,98515.73
2018-12-06T15:50:31.230Z,98517.19
2018-12-06T15:53:00.194Z,98522.87
2018-12-06T15:55:29.105Z,98539.45
2018-12-06T15:57:57.991Z,98537.30
2018-12-06T16:00:26.913Z,98546.77
2018-12-06T16:02:56.003Z,98537.81
2018-12-06T16:05:24.858Z,98542.56
2018-12-06T16:07:53.746Z,98528.89
2018-12-06T16:10:22.628Z,98525.70
2018-12-06T16:12:54.507Z,98516.72
2018-12-06T16:15:23.488Z,98516.48
2018-12-06T16:17:52.388Z,98523.49
2018-12-06T16:20:21.270Z,98507.59
2018-12-06T16:22:50.172Z,98513.31
2018-12-06T16:25:19.126Z,98522.23
2018-12-06T16:27:48.006Z,98516.30
2018-12-06T16:30:16.837Z,98503.80
2018-12-06T16:32:45.700Z,98505.27
2018-12-06T16:35:15.517Z,98507.02
2018-12-06T16:37:44.499Z,98505.99
2018-12-06T16:40:13.362Z,98501.91
2018-12-06T16:42:42.251Z,98510.30
2018-12-06T16:45:11.191Z,98501.95
2018-12-06T16:47:40.291Z,98508.63
2018-12-06T16:50:09.769Z,98517.88
2018-12-06T16:52:38.683Z,98523.88
2018-12-06T16:55:08.215Z,98532.52
2018-12-06T16:57:37.158Z,98536.33
2018-12-06T17:00:10.653Z,98534.02
2018-12-06T17:02:39.797Z,98530.45
2018-12-06T17:05:08.801Z,98529.37
2018-12-06T17:07:37.763Z,98536.72
2018-12-06T17:10:07.372Z,98536.64
2018-12-06T17:12:36.202Z,98541.88
2018-12-06T17:15:06.168Z,98538.80
2018-12-06T17:17:35.160Z,98542.00
2018-12-06T17:20:04.350Z,98542.69
2018-12-06T17:22:33.418Z,98544.03
2018-12-06T17:25:02.332Z,98542.48
2018-12-06T17:27:31.356Z,98541.52
2018-12-06T17:30:00.659Z,98549.20
2018-12-06T17:32:29.935Z,98548.44
2018-12-06T17:34:58.973Z,98550.56
2018-12-06T17:37:27.841Z,98543.56
2018-12-06T17:39:56.749Z,98545.42
2018-12-06T17:42:25.671Z,98543.27
2018-12-06T17:44:54.607Z,98543.67
2018-12-06T17:47:23.472Z,98545.97
2018-12-06T17:49:52.375Z,98548.70
2018-12-06T17:52:21.297Z,98547.99
2018-12-06T17:54:50.255Z,98556.38
2018-12-06T17:57:19.091Z,98555.31
2018-12-06T17:59:47.983Z,98558.46
2018-12-06T18:02:16.819Z,98545.67
2018-12-06T18:04:45.820Z,98550.09
2018-12-06T18:07:14.969Z,98542.80
2018-12-06T18:09:44.008Z,98550.23
2018-12-06T18:12:12.843Z,98558.91
2018-12-06T18:14:41.802Z,98552.64
2018-12-06T18:17:10.771Z,98548.05
2018-12-06T18:19:39.613Z,98556.02
2018-12-06T18:22:09.600Z,98567.64
2018-12-06T18:24:38.440Z,98564.30
2018-12-06T18:27:07.328Z,98567.29
2018-12-06T18:29:36.278Z,98560.39
2018-12-06T18:32:05.271Z,98564.11
2018-12-06T18:34:34.210Z,98567.23
2018-12-06T18:37:03.124Z,98562.66
2018-12-06T18:39:31.999Z,98576.73
2018-12-06T18:42:00.979Z,98574.27
2018-12-06T18:44:29.995Z,98574.30
2018-12-06T18:46:58.967Z,98572.40
2018-12-06T18:49:29.019Z,98569.95
2018-12-06T18:51:57.883Z,98564.52
2018-12-06T18:54:26.791Z,98558.33
2018-12-06T18:56:55.667Z,98559.45
2018-12-06T18:59:24.599Z,98556.30
2018-12-06T19:01:53.713Z,98554.50
2018-12-06T19:04:22.585Z,98559.42
2018-12-06T19:06:51.461Z,98553.19
2018-12-06T19:09:20.424Z,98562.78
2018-12-06T19:11:49.366Z,98562.56
2018-12-06T19:14:21.746Z,98572.59
2018-12-06T19:16:49.082Z,98572.05
2018-12-06T19:19:17.915Z,98570.44
2018-12-06T19:21:46.766Z,98573.71
2018-12-06T19:24:15.774Z,98572.01
2018-12-06T19:26:44.734Z,98568.70
2018-12-06T19:29:13.570Z,98569.98
2018-12-06T19:31:42.762Z,98561.95
2018-12-06T19:34:12.869Z,98563.30
2018-12-06T19:36:41.850Z,98571.33
2018-12-06T19:39:10.804Z,98569.98
2018-12-06T19:41:39.812Z,98568.23
2018-12-06T19:44:08.914Z,98567.72
2018-12-06T19:46:37.811Z,98566.19
2018-12-06T19:49:06.774Z,98551.78
2018-12-06T19:51:35.680Z,98556.48
2018-12-06T19:54:04.926Z,98547.22
2018-12-06T19:56:33.775Z,98547.69
2018-12-06T19:59:02.688Z,98565.20
2018-12-06T20:01:31.584Z,98562.82
2018-12-06T20:04:00.508Z,98565.66
2018-12-06T20:06:30.270Z,98563.88
2018-12-06T20:08:59.145Z,98551.66
2018-12-06T20:11:27.992Z,98544.55
2018-12-06T20:13:56.903Z,98540.88
2018-12-06T20:16:25.911Z,98542.80
2018-12-06T20:18:54.787Z,98549.84
2018-12-06T20:21:23.707Z,98535.33
2018-12-06T20:23:52.585Z,98533.72
2018-12-06T20:26:21.581Z,98539.41
2018-12-06T20:28:50.543Z,98529.09
2018-12-06T20:31:19.415Z,98528.54
2018-12-06T20:33:48.352Z,98528.91
2018-12-06T20:36:17.360Z,98523.73
2018-12-06T20:38:46.377Z,98540.53
2018-12-06T20:41:15.299Z,98529.19
2018-12-06T20:43:44.325Z,98524.13
2018-12-06T20:46:13.226Z,98525.44
2018-12-06T20:48:42.106Z,98513.48
2018-12-06T20:51:10.972Z,98508.78
2018-12-06T20:53:39.844Z,98511.44
2018-12-06T20:56:08.971Z,98507.47
2018-12-06T20:58:37.983Z,98508.47
2018-12-06T21:01:07.155Z,98508.02
2018-12-06T21:03:36.781Z,98506.08
2018-12-06T21:06:05.712Z,98503.83
2018-12-06T21:08:35.175Z,98497.24
2018-12-06T21:11:04.055Z,98498.20
2018-12-06T21:13:32.916Z,98487.48
2018-12-06T21:16:01.820Z,98486.28
2018-12-06T21:18:30.719Z,98479.45
2018-12-06T21:20:59.677Z,98475.56
2018-12-06T21:23:28.584Z,98476.33
2018-12-06T21:25:57.595Z,98483.91
2018-12-06T21:28:26.457Z,98482.92
2018-12-06T21:30:55.371Z,98489.59
2018-12-06T21:33:24.207Z,98495.32
2018-12-06T21:35:53.143Z,98498.20
2018-12-06T21:38:22.143Z,98490.36
2018-12-06T21:40:51.149Z,98501.38
2018-12-06T21:43:20.045Z,98488.17
2018-12-06T21:45:48.919Z,98486.60
2018-12-06T21:48:18.533Z,98481.53
2018-12-06T21:50:47.449Z,98488.31
2018-12-06T21:53:16.411Z,98488.14
2018-12-06T21:55:45.286Z,98490.61
2018-12-06T21:58:14.219Z,98486.50
2018-12-06T22:00:43.072Z,98494.38
2018-12-06T22:03:12.470Z,98495.25
2018-12-06T22:05:41.335Z,98503.56
2018-12-06T22:08:10.263Z,98509.54
2018-12-06T22:10:39.139Z,98513.88
2018-12-06T22:13:08.185Z,98515.95
2018-12-06T22:15:37.171Z,98501.23
2018-12-06T22:18:06.029Z,98500.24
2018-12-06T22:20:34.942Z,98496.81
2018-12-06T22:23:03.813Z,98496.67
2018-12-06T22:25:32.653Z,98489.08
2018-12-06T22:28:01.510Z,98492.94
2018-12-06T22:30:30.409Z,98501.38
2018-12-06T22:32:59.316Z,98494.88
2018-12-06T22:35:28.538Z,98491.37
2018-12-06T22:37:57.470Z,98495.20
2018-12-06T22:40:26.314Z,98492.18
2018-12-06T22:42:55.244Z,98490.69
2018-12-06T22:46:27.632Z,98487.48
2018-12-06T22:48:56.492Z,98482.92
2018-12-06T22:51:25.364Z,98483.43
2018-12-06T22:53:54.259Z,98482.38
2018-12-06T22:56:23.215Z,98465.30
2018-12-06T22:58:52.083Z,98467.09
2018-12-06T23:01:25.141Z,98477.89
2018-12-06T23:03:54.155Z,98475.05
2018-12-06T23:06:22.983Z,98468.88
2018-12-06T23:08:52.095Z,98456.91
2018-12-06T23:11:22.059Z,98453.45
2018-12-06T23:13:50.891Z,98456.95
2018-12-06T23:16:19.846Z,98447.59
2018-12-06T23:18:48.730Z,98450.87
2018-12-06T23:21:18.636Z,98449.56
2018-12-06T23:23:47.486Z,98447.88
2018-12-06T23:26:16.319Z,98448.56
2018-12-06T23:28:45.217Z,98442.33
2018-12-06T23:31:14.126Z,98432.20
2018-12-06T23:33:43.014Z,98418.59
2018-12-06T23:36:11.886Z,98420.02
2018-12-06T23:38:40.791Z,98426.30
2018-12-06T23:41:09.661Z,98417.18
2018-12-06T23:43:38.553Z,98414.15
2018-12-06T23:46:07.411Z,98419.38
2018-12-06T23:48:36.432Z,98427.75
2018-12-06T23:51:16.743Z,98423.28
2018-12-06T23:53:45.591Z,98420.04
2018-12-06T23:56:14.430Z,98405.12
2018-12-06T23:58:43.371Z,98411.27
